sensor_id;sensor_type;location;lat;lon;timestamp;P1;durP1;ratioP1;P2;durP2;ratioP2
22967;SDS011;11650;48.106;-1.696;2023-08-08T00:01:54;10.67;;;2.23;;
22967;SDS011;11650;48.106;-1.696;2023-08-08T00:04:20;10.07;;;2.30;;
22967;SDS011;11650;48.106;-1.696;2023-08-08T00:06:46;6.93;;;2.03;;
22967;SDS011;11650;48.106;-1.696;2023-08-08T00:09:11;7.50;;;1.97;;
22967;SDS011;11650;48.106;-1.696;2023-08-08T00:11:38;9.53;;;2.10;;
22967;SDS011;11650;48.106;-1.696;2023-08-08T00:14:04;5.73;;;1.77;;
22967;SDS011;11650;48.106;-1.696;2023-08-08T00:16:29;7.93;;;2.10;;
22967;SDS011;11650;48.106;-1.696;2023-08-08T00:18:55;11.23;;;2.10;;
22967;SDS011;11650;48.106;-1.696;2023-08-08T00:21:21;9.13;;;1.77;;
22967;SDS011;11650;48.106;-1.696;2023-08-08T00:23:46;8.03;;;2.10;;
22967;SDS011;11650;48.106;-1.696;2023-08-08T00:26:12;6.33;;;1.93;;
22967;SDS011;11650;48.106;-1.696;2023-08-08T00:28:38;10.53;;;2.10;;
22967;SDS011;11650;48.106;-1.696;2023-08-08T00:31:03;11.20;;;2.27;;
22967;SDS011;11650;48.106;-1.696;2023-08-08T00:33:29;12.23;;;2.17;;
22967;SDS011;11650;48.106;-1.696;2023-08-08T00:35:55;8.47;;;2.27;;
22967;SDS011;11650;48.106;-1.696;2023-08-08T00:38:20;8.43;;;2.40;;
22967;SDS011;11650;48.106;-1.696;2023-08-08T00:40:46;8.80;;;2.57;;
22967;SDS011;11650;48.106;-1.696;2023-08-08T00:43:12;9.23;;;2.23;;
22967;SDS011;11650;48.106;-1.696;2023-08-08T00:45:37;8.80;;;2.20;;
22967;SDS011;11650;48.106;-1.696;2023-08-08T00:48:06;11.93;;;2.37;;
22967;SDS011;11650;48.106;-1.696;2023-08-08T00:50:32;8.30;;;1.87;;
22967;SDS011;11650;48.106;-1.696;2023-08-08T00:52:59;5.63;;;2.23;;
22967;SDS011;11650;48.106;-1.696;2023-08-08T00:55:25;6.47;;;1.90;;
22967;SDS011;11650;48.106;-1.696;2023-08-08T00:57:51;10.20;;;2.07;;
22967;SDS011;11650;48.106;-1.696;2023-08-08T01:00:17;9.13;;;1.97;;
22967;SDS011;11650;48.106;-1.696;2023-08-08T01:02:43;8.67;;;1.90;;
22967;SDS011;11650;48.106;-1.696;2023-08-08T01:05:08;8.47;;;2.10;;
22967;SDS011;11650;48.106;-1.696;2023-08-08T01:10:09;7.23;;;2.20;;
22967;SDS011;11650;48.106;-1.696;2023-08-08T01:12:44;9.57;;;2.10;;
22967;SDS011;11650;48.106;-1.696;2023-08-08T01:15:12;9.20;;;2.30;;
22967;SDS011;11650;48.106;-1.696;2023-08-08T01:17:39;11.60;;;2.47;;
22967;SDS011;11650;48.106;-1.696;2023-08-08T01:20:07;9.87;;;2.20;;
22967;SDS011;11650;48.106;-1.696;2023-08-08T01:22:39;12.03;;;2.57;;
22967;SDS011;11650;48.106;-1.696;2023-08-08T01:25:09;9.60;;;2.50;;
22967;SDS011;11650;48.106;-1.696;2023-08-08T01:27:35;11.57;;;2.73;;
22967;SDS011;11650;48.106;-1.696;2023-08-08T01:30:02;9.27;;;2.20;;
22967;SDS011;11650;48.106;-1.696;2023-08-08T01:32:29;6.80;;;2.50;;
22967;SDS011;11650;48.106;-1.696;2023-08-08T01:34:54;11.60;;;2.53;;
22967;SDS011;11650;48.106;-1.696;2023-08-08T01:37:22;8.27;;;2.40;;
22967;SDS011;11650;48.106;-1.696;2023-08-08T01:39:56;8.13;;;1.77;;
22967;SDS011;11650;48.106;-1.696;2023-08-08T01:42:24;9.03;;;2.30;;
22967;SDS011;11650;48.106;-1.696;2023-08-08T01:44:50;8.53;;;2.33;;
22967;SDS011;11650;48.106;-1.696;2023-08-08T01:47:17;9.70;;;2.13;;
22967;SDS011;11650;48.106;-1.696;2023-08-08T01:49:43;9.93;;;2.10;;
22967;SDS011;11650;48.106;-1.696;2023-08-08T01:52:09;7.23;;;2.30;;
22967;SDS011;11650;48.106;-1.696;2023-08-08T01:54:34;13.07;;;2.60;;
22967;SDS011;11650;48.106;-1.696;2023-08-08T01:57:00;7.73;;;2.33;;
22967;SDS011;11650;48.106;-1.696;2023-08-08T01:59:25;7.63;;;2.37;;
22967;SDS011;11650;48.106;-1.696;2023-08-08T02:01:51;8.47;;;2.50;;
22967;SDS011;11650;48.106;-1.696;2023-08-08T02:04:17;9.43;;;2.00;;
22967;SDS011;11650;48.106;-1.696;2023-08-08T02:06:42;16.97;;;2.80;;
22967;SDS011;11650;48.106;-1.696;2023-08-08T02:09:08;10.40;;;2.20;;
22967;SDS011;11650;48.106;-1.696;2023-08-08T02:11:33;8.23;;;2.50;;
22967;SDS011;11650;48.106;-1.696;2023-08-08T02:13:59;12.17;;;2.43;;
22967;SDS011;11650;48.106;-1.696;2023-08-08T02:16:25;8.17;;;2.10;;
22967;SDS011;11650;48.106;-1.696;2023-08-08T02:18:50;12.50;;;2.23;;
22967;SDS011;11650;48.106;-1.696;2023-08-08T02:21:16;8.57;;;2.50;;
22967;SDS011;11650;48.106;-1.696;2023-08-08T02:23:42;12.30;;;2.80;;
22967;SDS011;11650;48.106;-1.696;2023-08-08T02:26:07;11.63;;;2.40;;
22967;SDS011;11650;48.106;-1.696;2023-08-08T02:28:33;11.13;;;2.53;;
22967;SDS011;11650;48.106;-1.696;2023-08-08T02:30:59;12.57;;;2.93;;
22967;SDS011;11650;48.106;-1.696;2023-08-08T02:33:24;12.40;;;2.30;;
22967;SDS011;11650;48.106;-1.696;2023-08-08T02:35:50;7.83;;;2.40;;
22967;SDS011;11650;48.106;-1.696;2023-08-08T02:38:16;11.73;;;2.43;;
22967;SDS011;11650;48.106;-1.696;2023-08-08T02:40:41;14.43;;;2.60;;
22967;SDS011;11650;48.106;-1.696;2023-08-08T02:43:07;11.30;;;2.27;;
22967;SDS011;11650;48.106;-1.696;2023-08-08T02:45:34;12.53;;;2.30;;
22967;SDS011;11650;48.106;-1.696;2023-08-08T02:47:59;10.83;;;2.70;;
22967;SDS011;11650;48.106;-1.696;2023-08-08T02:50:25;9.30;;;2.10;;
22967;SDS011;11650;48.106;-1.696;2023-08-08T02:52:51;10.83;;;2.83;;
22967;SDS011;11650;48.106;-1.696;2023-08-08T02:55:17;11.80;;;3.10;;
22967;SDS011;11650;48.106;-1.696;2023-08-08T02:57:42;9.20;;;2.90;;
22967;SDS011;11650;48.106;-1.696;2023-08-08T03:00:08;9.70;;;3.93;;
22967;SDS011;11650;48.106;-1.696;2023-08-08T03:02:35;11.57;;;3.30;;
22967;SDS011;11650;48.106;-1.696;2023-08-08T03:05:01;6.17;;;2.87;;
22967;SDS011;11650;48.106;-1.696;2023-08-08T03:07:26;10.20;;;2.87;;
22967;SDS011;11650;48.106;-1.696;2023-08-08T03:09:52;10.40;;;2.53;;
22967;SDS011;11650;48.106;-1.696;2023-08-08T03:12:18;10.07;;;2.80;;
22967;SDS011;11650;48.106;-1.696;2023-08-08T03:14:44;10.27;;;2.77;;
22967;SDS011;11650;48.106;-1.696;2023-08-08T03:17:09;8.27;;;2.33;;
22967;SDS011;11650;48.106;-1.696;2023-08-08T03:19:35;10.93;;;2.80;;
22967;SDS011;11650;48.106;-1.696;2023-08-08T03:22:00;9.10;;;2.80;;
22967;SDS011;11650;48.106;-1.696;2023-08-08T03:24:26;11.37;;;2.60;;
22967;SDS011;11650;48.106;-1.696;2023-08-08T03:26:52;8.50;;;2.80;;
22967;SDS011;11650;48.106;-1.696;2023-08-08T03:29:17;8.90;;;2.73;;
22967;SDS011;11650;48.106;-1.696;2023-08-08T03:31:43;8.00;;;2.37;;
22967;SDS011;11650;48.106;-1.696;2023-08-08T03:34:08;9.23;;;2.60;;
22967;SDS011;11650;48.106;-1.696;2023-08-08T03:36:34;9.37;;;2.50;;
22967;SDS011;11650;48.106;-1.696;2023-08-08T03:39:00;10.73;;;2.97;;
22967;SDS011;11650;48.106;-1.696;2023-08-08T03:41:26;10.37;;;2.60;;
22967;SDS011;11650;48.106;-1.696;2023-08-08T03:43:51;9.33;;;2.57;;
22967;SDS011;11650;48.106;-1.696;2023-08-08T03:46:17;6.93;;;2.67;;
22967;SDS011;11650;48.106;-1.696;2023-08-08T03:48:42;8.30;;;2.57;;
22967;SDS011;11650;48.106;-1.696;2023-08-08T03:51:08;7.80;;;2.70;;
22967;SDS011;11650;48.106;-1.696;2023-08-08T03:53:34;9.50;;;2.80;;
22967;SDS011;11650;48.106;-1.696;2023-08-08T03:55:59;15.77;;;3.27;;
22967;SDS011;11650;48.106;-1.696;2023-08-08T03:58:25;6.97;;;2.70;;
22967;SDS011;11650;48.106;-1.696;2023-08-08T04:00:50;11.87;;;2.83;;
22967;SDS011;11650;48.106;-1.696;2023-08-08T04:03:16;13.63;;;2.70;;
22967;SDS011;11650;48.106;-1.696;2023-08-08T04:05:43;8.57;;;2.83;;
22967;SDS011;11650;48.106;-1.696;2023-08-08T04:08:11;9.90;;;2.63;;
22967;SDS011;11650;48.106;-1.696;2023-08-08T04:10:37;12.93;;;2.80;;
22967;SDS011;11650;48.106;-1.696;2023-08-08T04:13:03;10.23;;;2.63;;
22967;SDS011;11650;48.106;-1.696;2023-08-08T04:15:28;6.40;;;2.60;;
22967;SDS011;11650;48.106;-1.696;2023-08-08T04:17:54;9.20;;;3.00;;
22967;SDS011;11650;48.106;-1.696;2023-08-08T04:20:20;9.33;;;3.33;;
22967;SDS011;11650;48.106;-1.696;2023-08-08T04:22:45;11.90;;;2.70;;
22967;SDS011;11650;48.106;-1.696;2023-08-08T04:25:11;12.43;;;3.10;;
22967;SDS011;11650;48.106;-1.696;2023-08-08T04:27:37;7.50;;;3.13;;
22967;SDS011;11650;48.106;-1.696;2023-08-08T04:30:02;9.77;;;2.77;;
22967;SDS011;11650;48.106;-1.696;2023-08-08T04:32:29;9.30;;;2.83;;
22967;SDS011;11650;48.106;-1.696;2023-08-08T04:34:55;7.07;;;2.50;;
22967;SDS011;11650;48.106;-1.696;2023-08-08T04:37:21;10.63;;;3.17;;
22967;SDS011;11650;48.106;-1.696;2023-08-08T04:39:46;9.03;;;3.17;;
22967;SDS011;11650;48.106;-1.696;2023-08-08T04:42:12;10.70;;;2.70;;
22967;SDS011;11650;48.106;-1.696;2023-08-08T04:44:38;8.87;;;3.03;;
22967;SDS011;11650;48.106;-1.696;2023-08-08T04:47:04;10.13;;;2.90;;
22967;SDS011;11650;48.106;-1.696;2023-08-08T04:49:29;9.40;;;3.10;;
22967;SDS011;11650;48.106;-1.696;2023-08-08T04:51:55;8.60;;;2.40;;
22967;SDS011;11650;48.106;-1.696;2023-08-08T04:54:21;11.37;;;3.00;;
22967;SDS011;11650;48.106;-1.696;2023-08-08T04:56:46;9.83;;;2.93;;
22967;SDS011;11650;48.106;-1.696;2023-08-08T04:59:12;10.77;;;3.23;;
22967;SDS011;11650;48.106;-1.696;2023-08-08T05:01:37;7.03;;;2.53;;
22967;SDS011;11650;48.106;-1.696;2023-08-08T05:04:03;11.57;;;3.20;;
22967;SDS011;11650;48.106;-1.696;2023-08-08T05:06:29;9.07;;;3.30;;
22967;SDS011;11650;48.106;-1.696;2023-08-08T05:08:55;13.83;;;3.17;;
22967;SDS011;11650;48.106;-1.696;2023-08-08T05:11:21;9.87;;;3.40;;
22967;SDS011;11650;48.106;-1.696;2023-08-08T05:13:47;8.20;;;3.40;;
22967;SDS011;11650;48.106;-1.696;2023-08-08T05:16:13;9.60;;;2.87;;
22967;SDS011;11650;48.106;-1.696;2023-08-08T05:18:39;12.23;;;3.47;;
22967;SDS011;11650;48.106;-1.696;2023-08-08T05:21:05;12.03;;;3.40;;
22967;SDS011;11650;48.106;-1.696;2023-08-08T05:23:31;7.33;;;3.30;;
22967;SDS011;11650;48.106;-1.696;2023-08-08T05:25:57;12.33;;;3.80;;
22967;SDS011;11650;48.106;-1.696;2023-08-08T05:28:23;12.00;;;3.30;;
22967;SDS011;11650;48.106;-1.696;2023-08-08T05:30:48;11.57;;;4.27;;
22967;SDS011;11650;48.106;-1.696;2023-08-08T05:33:14;10.03;;;3.77;;
22967;SDS011;11650;48.106;-1.696;2023-08-08T05:35:40;19.40;;;4.63;;
22967;SDS011;11650;48.106;-1.696;2023-08-08T05:38:05;11.93;;;4.00;;
22967;SDS011;11650;48.106;-1.696;2023-08-08T05:40:33;13.67;;;4.23;;
22967;SDS011;11650;48.106;-1.696;2023-08-08T05:43:00;14.83;;;4.30;;
22967;SDS011;11650;48.106;-1.696;2023-08-08T05:45:26;11.97;;;4.43;;
22967;SDS011;11650;48.106;-1.696;2023-08-08T05:47:51;12.27;;;4.50;;
22967;SDS011;11650;48.106;-1.696;2023-08-08T05:50:17;12.03;;;4.30;;
22967;SDS011;11650;48.106;-1.696;2023-08-08T05:52:43;15.17;;;4.73;;
22967;SDS011;11650;48.106;-1.696;2023-08-08T05:55:08;11.17;;;4.30;;
22967;SDS011;11650;48.106;-1.696;2023-08-08T05:57:34;12.17;;;4.47;;
22967;SDS011;11650;48.106;-1.696;2023-08-08T06:00:00;11.83;;;4.70;;
22967;SDS011;11650;48.106;-1.696;2023-08-08T06:02:25;12.17;;;4.73;;
22967;SDS011;11650;48.106;-1.696;2023-08-08T06:04:51;13.77;;;4.77;;
22967;SDS011;11650;48.106;-1.696;2023-08-08T06:07:17;10.87;;;4.63;;
22967;SDS011;11650;48.106;-1.696;2023-08-08T06:09:42;15.20;;;5.13;;
22967;SDS011;11650;48.106;-1.696;2023-08-08T06:12:08;14.40;;;4.70;;
22967;SDS011;11650;48.106;-1.696;2023-08-08T06:14:34;17.00;;;4.67;;
22967;SDS011;11650;48.106;-1.696;2023-08-08T06:17:00;12.23;;;4.23;;
22967;SDS011;11650;48.106;-1.696;2023-08-08T06:19:25;11.37;;;4.23;;
22967;SDS011;11650;48.106;-1.696;2023-08-08T06:21:51;16.50;;;4.37;;
22967;SDS011;11650;48.106;-1.696;2023-08-08T06:24:17;15.83;;;4.43;;
22967;SDS011;11650;48.106;-1.696;2023-08-08T06:26:42;14.73;;;4.80;;
22967;SDS011;11650;48.106;-1.696;2023-08-08T06:29:08;18.33;;;4.90;;
22967;SDS011;11650;48.106;-1.696;2023-08-08T06:31:34;16.70;;;4.90;;
22967;SDS011;11650;48.106;-1.696;2023-08-08T06:33:59;8.27;;;4.20;;
22967;SDS011;11650;48.106;-1.696;2023-08-08T06:36:25;14.07;;;4.53;;
22967;SDS011;11650;48.106;-1.696;2023-08-08T06:38:50;19.03;;;5.07;;
22967;SDS011;11650;48.106;-1.696;2023-08-08T06:41:16;12.77;;;5.57;;
22967;SDS011;11650;48.106;-1.696;2023-08-08T06:43:42;13.47;;;4.83;;
22967;SDS011;11650;48.106;-1.696;2023-08-08T06:46:08;17.13;;;5.37;;
22967;SDS011;11650;48.106;-1.696;2023-08-08T06:48:33;12.63;;;5.20;;
22967;SDS011;11650;48.106;-1.696;2023-08-08T06:50:59;10.17;;;4.83;;
22967;SDS011;11650;48.106;-1.696;2023-08-08T06:53:25;13.77;;;5.37;;
22967;SDS011;11650;48.106;-1.696;2023-08-08T06:55:51;13.93;;;5.20;;
22967;SDS011;11650;48.106;-1.696;2023-08-08T06:58:16;17.33;;;5.07;;
22967;SDS011;11650;48.106;-1.696;2023-08-08T07:00:42;14.83;;;5.10;;
22967;SDS011;11650;48.106;-1.696;2023-08-08T07:03:08;10.87;;;4.60;;
22967;SDS011;11650;48.106;-1.696;2023-08-08T07:05:34;10.23;;;4.33;;
22967;SDS011;11650;48.106;-1.696;2023-08-08T07:07:59;12.80;;;4.97;;
22967;SDS011;11650;48.106;-1.696;2023-08-08T07:10:25;9.53;;;4.80;;
22967;SDS011;11650;48.106;-1.696;2023-08-08T07:12:51;14.10;;;4.57;;
22967;SDS011;11650;48.106;-1.696;2023-08-08T07:15:17;12.80;;;4.50;;
22967;SDS011;11650;48.106;-1.696;2023-08-08T07:17:44;11.30;;;4.00;;
22967;SDS011;11650;48.106;-1.696;2023-08-08T07:20:10;10.73;;;3.70;;
22967;SDS011;11650;48.106;-1.696;2023-08-08T07:22:38;13.37;;;4.50;;
22967;SDS011;11650;48.106;-1.696;2023-08-08T07:25:04;12.73;;;4.40;;
22967;SDS011;11650;48.106;-1.696;2023-08-08T07:27:31;7.83;;;3.50;;
22967;SDS011;11650;48.106;-1.696;2023-08-08T07:29:56;10.23;;;4.27;;
22967;SDS011;11650;48.106;-1.696;2023-08-08T07:32:22;12.00;;;3.93;;
22967;SDS011;11650;48.106;-1.696;2023-08-08T07:34:47;13.53;;;4.23;;
22967;SDS011;11650;48.106;-1.696;2023-08-08T07:37:13;7.90;;;4.30;;
22967;SDS011;11650;48.106;-1.696;2023-08-08T07:39:39;13.70;;;4.37;;
22967;SDS011;11650;48.106;-1.696;2023-08-08T07:42:05;10.63;;;3.87;;
22967;SDS011;11650;48.106;-1.696;2023-08-08T07:44:30;14.77;;;4.20;;
22967;SDS011;11650;48.106;-1.696;2023-08-08T07:46:59;11.73;;;3.97;;
22967;SDS011;11650;48.106;-1.696;2023-08-08T07:49:25;10.53;;;3.77;;
22967;SDS011;11650;48.106;-1.696;2023-08-08T07:51:50;9.93;;;3.67;;
22967;SDS011;11650;48.106;-1.696;2023-08-08T07:54:16;10.23;;;2.60;;
22967;SDS011;11650;48.106;-1.696;2023-08-08T07:56:42;7.80;;;2.53;;
22967;SDS011;11650;48.106;-1.696;2023-08-08T07:59:07;6.70;;;2.40;;
22967;SDS011;11650;48.106;-1.696;2023-08-08T08:01:34;7.90;;;2.30;;
22967;SDS011;11650;48.106;-1.696;2023-08-08T08:03:59;8.60;;;3.00;;
22967;SDS011;11650;48.106;-1.696;2023-08-08T08:06:25;8.70;;;2.90;;
22967;SDS011;11650;48.106;-1.696;2023-08-08T08:08:51;10.63;;;2.70;;
22967;SDS011;11650;48.106;-1.696;2023-08-08T08:11:17;6.90;;;2.47;;
22967;SDS011;11650;48.106;-1.696;2023-08-08T08:13:42;7.27;;;2.40;;
22967;SDS011;11650;48.106;-1.696;2023-08-08T08:16:08;8.10;;;2.70;;
22967;SDS011;11650;48.106;-1.696;2023-08-08T08:18:34;10.03;;;3.10;;
22967;SDS011;11650;48.106;-1.696;2023-08-08T08:21:00;7.63;;;2.57;;
22967;SDS011;11650;48.106;-1.696;2023-08-08T08:23:25;6.13;;;2.40;;
22967;SDS011;11650;48.106;-1.696;2023-08-08T08:25:51;5.33;;;2.10;;
22967;SDS011;11650;48.106;-1.696;2023-08-08T08:28:17;9.20;;;3.20;;
22967;SDS011;11650;48.106;-1.696;2023-08-08T08:30:42;7.87;;;3.07;;
22967;SDS011;11650;48.106;-1.696;2023-08-08T08:33:08;9.03;;;3.30;;
22967;SDS011;11650;48.106;-1.696;2023-08-08T08:35:35;11.87;;;3.23;;
22967;SDS011;11650;48.106;-1.696;2023-08-08T08:38:01;10.50;;;2.90;;
22967;SDS011;11650;48.106;-1.696;2023-08-08T08:40:27;10.20;;;2.87;;
22967;SDS011;11650;48.106;-1.696;2023-08-08T08:42:54;7.03;;;2.40;;
22967;SDS011;11650;48.106;-1.696;2023-08-08T08:45:21;9.23;;;2.57;;
22967;SDS011;11650;48.106;-1.696;2023-08-08T08:47:48;9.83;;;2.43;;
22967;SDS011;11650;48.106;-1.696;2023-08-08T08:50:16;10.57;;;2.33;;
22967;SDS011;11650;48.106;-1.696;2023-08-08T08:52:43;10.00;;;2.50;;
22967;SDS011;11650;48.106;-1.696;2023-08-08T08:55:09;9.00;;;2.90;;
22967;SDS011;11650;48.106;-1.696;2023-08-08T08:57:35;7.57;;;2.07;;
22967;SDS011;11650;48.106;-1.696;2023-08-08T09:00:02;13.10;;;2.73;;
22967;SDS011;11650;48.106;-1.696;2023-08-08T09:02:30;6.90;;;1.90;;
22967;SDS011;11650;48.106;-1.696;2023-08-08T09:04:56;8.63;;;2.53;;
22967;SDS011;11650;48.106;-1.696;2023-08-08T09:07:24;9.23;;;2.10;;
22967;SDS011;11650;48.106;-1.696;2023-08-08T09:09:52;7.20;;;2.30;;
22967;SDS011;11650;48.106;-1.696;2023-08-08T09:12:18;11.50;;;2.07;;
22967;SDS011;11650;48.106;-1.696;2023-08-08T09:14:44;9.87;;;2.07;;
22967;SDS011;11650;48.106;-1.696;2023-08-08T09:17:12;7.40;;;2.37;;
22967;SDS011;11650;48.106;-1.696;2023-08-08T09:19:38;6.40;;;2.20;;
22967;SDS011;11650;48.106;-1.696;2023-08-08T09:22:07;12.83;;;2.30;;
22967;SDS011;11650;48.106;-1.696;2023-08-08T09:24:37;7.30;;;2.00;;
22967;SDS011;11650;48.106;-1.696;2023-08-08T09:27:04;9.50;;;2.00;;
22967;SDS011;11650;48.106;-1.696;2023-08-08T09:29:31;9.37;;;2.30;;
22967;SDS011;11650;48.106;-1.696;2023-08-08T09:31:57;7.47;;;1.97;;
22967;SDS011;11650;48.106;-1.696;2023-08-08T09:34:26;5.33;;;1.67;;
22967;SDS011;11650;48.106;-1.696;2023-08-08T09:36:53;7.47;;;2.10;;
22967;SDS011;11650;48.106;-1.696;2023-08-08T09:39:19;5.40;;;1.80;;
22967;SDS011;11650;48.106;-1.696;2023-08-08T09:41:46;5.87;;;2.00;;
22967;SDS011;11650;48.106;-1.696;2023-08-08T09:44:12;9.37;;;1.93;;
22967;SDS011;11650;48.106;-1.696;2023-08-08T09:46:38;3.73;;;1.70;;
22967;SDS011;11650;48.106;-1.696;2023-08-08T09:49:04;6.03;;;1.83;;
22967;SDS011;11650;48.106;-1.696;2023-08-08T09:51:31;5.57;;;1.50;;
22967;SDS011;11650;48.106;-1.696;2023-08-08T09:53:58;6.47;;;1.83;;
22967;SDS011;11650;48.106;-1.696;2023-08-08T09:56:25;5.60;;;1.67;;
22967;SDS011;11650;48.106;-1.696;2023-08-08T09:58:51;4.83;;;1.63;;
22967;SDS011;11650;48.106;-1.696;2023-08-08T10:01:21;4.53;;;1.80;;
22967;SDS011;11650;48.106;-1.696;2023-08-08T10:03:47;6.50;;;1.80;;
22967;SDS011;11650;48.106;-1.696;2023-08-08T10:06:16;8.63;;;1.93;;
22967;SDS011;11650;48.106;-1.696;2023-08-08T10:08:41;7.57;;;1.90;;
22967;SDS011;11650;48.106;-1.696;2023-08-08T10:11:08;7.10;;;1.90;;
22967;SDS011;11650;48.106;-1.696;2023-08-08T10:13:35;5.03;;;1.53;;
22967;SDS011;11650;48.106;-1.696;2023-08-08T10:16:07;6.67;;;1.70;;
22967;SDS011;11650;48.106;-1.696;2023-08-08T10:18:33;5.50;;;1.70;;
22967;SDS011;11650;48.106;-1.696;2023-08-08T10:20:59;5.73;;;1.90;;
22967;SDS011;11650;48.106;-1.696;2023-08-08T10:23:25;5.43;;;1.60;;
22967;SDS011;11650;48.106;-1.696;2023-08-08T10:26:00;5.77;;;1.57;;
22967;SDS011;11650;48.106;-1.696;2023-08-08T10:28:27;4.77;;;1.50;;
22967;SDS011;11650;48.106;-1.696;2023-08-08T10:30:54;7.20;;;1.70;;
22967;SDS011;11650;48.106;-1.696;2023-08-08T10:33:27;3.93;;;1.37;;
22967;SDS011;11650;48.106;-1.696;2023-08-08T10:36:04;6.93;;;1.73;;
22967;SDS011;11650;48.106;-1.696;2023-08-08T10:38:41;7.37;;;1.60;;
22967;SDS011;11650;48.106;-1.696;2023-08-08T10:41:15;6.47;;;1.53;;
22967;SDS011;11650;48.106;-1.696;2023-08-08T10:43:49;4.00;;;1.17;;
22967;SDS011;11650;48.106;-1.696;2023-08-08T10:46:39;4.53;;;1.47;;
22967;SDS011;11650;48.106;-1.696;2023-08-08T10:49:06;4.67;;;1.33;;
22967;SDS011;11650;48.106;-1.696;2023-08-08T10:51:36;5.37;;;1.40;;
22967;SDS011;11650;48.106;-1.696;2023-08-08T10:54:04;5.97;;;1.60;;
22967;SDS011;11650;48.106;-1.696;2023-08-08T10:56:56;4.63;;;1.60;;
22967;SDS011;11650;48.106;-1.696;2023-08-08T10:59:41;4.63;;;1.57;;
22967;SDS011;11650;48.106;-1.696;2023-08-08T11:02:07;6.80;;;1.70;;
22967;SDS011;11650;48.106;-1.696;2023-08-08T11:04:34;3.87;;;1.70;;
22967;SDS011;11650;48.106;-1.696;2023-08-08T11:07:00;5.23;;;1.40;;
22967;SDS011;11650;48.106;-1.696;2023-08-08T11:09:26;4.03;;;1.80;;
22967;SDS011;11650;48.106;-1.696;2023-08-08T11:11:52;3.30;;;1.30;;
22967;SDS011;11650;48.106;-1.696;2023-08-08T11:14:18;3.47;;;1.47;;
22967;SDS011;11650;48.106;-1.696;2023-08-08T11:16:46;3.80;;;1.40;;
22967;SDS011;11650;48.106;-1.696;2023-08-08T11:19:13;5.73;;;1.40;;
22967;SDS011;11650;48.106;-1.696;2023-08-08T11:21:42;4.23;;;1.20;;
22967;SDS011;11650;48.106;-1.696;2023-08-08T11:24:09;4.97;;;1.40;;
22967;SDS011;11650;48.106;-1.696;2023-08-08T11:26:36;3.37;;;1.07;;
22967;SDS011;11650;48.106;-1.696;2023-08-08T11:29:04;4.23;;;1.70;;
22967;SDS011;11650;48.106;-1.696;2023-08-08T11:31:33;5.07;;;1.90;;
22967;SDS011;11650;48.106;-1.696;2023-08-08T11:34:00;6.03;;;1.60;;
22967;SDS011;11650;48.106;-1.696;2023-08-08T11:36:29;5.80;;;1.70;;
22967;SDS011;11650;48.106;-1.696;2023-08-08T11:38:57;4.50;;;1.70;;
22967;SDS011;11650;48.106;-1.696;2023-08-08T11:41:28;3.67;;;1.40;;
22967;SDS011;11650;48.106;-1.696;2023-08-08T11:43:54;5.57;;;1.53;;
22967;SDS011;11650;48.106;-1.696;2023-08-08T11:46:24;6.47;;;1.50;;
22967;SDS011;11650;48.106;-1.696;2023-08-08T11:48:51;7.53;;;1.60;;
22967;SDS011;11650;48.106;-1.696;2023-08-08T11:51:16;6.03;;;1.50;;
22967;SDS011;11650;48.106;-1.696;2023-08-08T11:53:52;8.37;;;1.63;;
22967;SDS011;11650;48.106;-1.696;2023-08-08T11:56:21;7.30;;;1.60;;
22967;SDS011;11650;48.106;-1.696;2023-08-08T11:58:50;4.77;;;1.50;;
22967;SDS011;11650;48.106;-1.696;2023-08-08T12:01:24;6.63;;;1.67;;
22967;SDS011;11650;48.106;-1.696;2023-08-08T12:03:51;7.00;;;1.50;;
22967;SDS011;11650;48.106;-1.696;2023-08-08T12:06:17;4.67;;;1.50;;
22967;SDS011;11650;48.106;-1.696;2023-08-08T12:08:43;5.43;;;1.40;;
22967;SDS011;11650;48.106;-1.696;2023-08-08T12:11:10;5.03;;;1.40;;
22967;SDS011;11650;48.106;-1.696;2023-08-08T12:13:37;5.13;;;1.50;;
22967;SDS011;11650;48.106;-1.696;2023-08-08T12:16:05;3.73;;;1.60;;
22967;SDS011;11650;48.106;-1.696;2023-08-08T12:18:32;6.60;;;1.87;;
22967;SDS011;11650;48.106;-1.696;2023-08-08T12:20:58;6.70;;;1.50;;
22967;SDS011;11650;48.106;-1.696;2023-08-08T12:23:24;4.63;;;1.70;;
22967;SDS011;11650;48.106;-1.696;2023-08-08T12:25:51;6.63;;;1.77;;
22967;SDS011;11650;48.106;-1.696;2023-08-08T12:28:16;4.73;;;1.77;;
22967;SDS011;11650;48.106;-1.696;2023-08-08T12:30:42;2.90;;;1.50;;
22967;SDS011;11650;48.106;-1.696;2023-08-08T12:33:08;3.13;;;1.30;;
22967;SDS011;11650;48.106;-1.696;2023-08-08T12:35:33;3.83;;;1.70;;
22967;SDS011;11650;48.106;-1.696;2023-08-08T12:37:59;4.63;;;1.50;;
22967;SDS011;11650;48.106;-1.696;2023-08-08T12:40:24;3.87;;;1.30;;
22967;SDS011;11650;48.106;-1.696;2023-08-08T12:42:50;3.80;;;1.30;;
22967;SDS011;11650;48.106;-1.696;2023-08-08T12:45:16;3.53;;;1.30;;
22967;SDS011;11650;48.106;-1.696;2023-08-08T12:47:43;5.83;;;1.80;;
22967;SDS011;11650;48.106;-1.696;2023-08-08T12:50:09;3.33;;;1.43;;
22967;SDS011;11650;48.106;-1.696;2023-08-08T12:52:34;8.03;;;1.90;;
22967;SDS011;11650;48.106;-1.696;2023-08-08T12:55:01;11.30;;;1.57;;
22967;SDS011;11650;48.106;-1.696;2023-08-08T12:57:27;5.77;;;1.57;;
22967;SDS011;11650;48.106;-1.696;2023-08-08T12:59:53;4.43;;;1.73;;
22967;SDS011;11650;48.106;-1.696;2023-08-08T13:02:19;5.33;;;1.53;;
22967;SDS011;11650;48.106;-1.696;2023-08-08T13:04:45;5.37;;;1.50;;
22967;SDS011;11650;48.106;-1.696;2023-08-08T13:07:11;4.17;;;1.60;;
22967;SDS011;11650;48.106;-1.696;2023-08-08T13:09:37;3.73;;;1.30;;
22967;SDS011;11650;48.106;-1.696;2023-08-08T13:12:04;5.90;;;1.50;;
22967;SDS011;11650;48.106;-1.696;2023-08-08T13:14:30;4.20;;;1.40;;
22967;SDS011;11650;48.106;-1.696;2023-08-08T13:16:56;3.75;;;1.52;;
22967;SDS011;11650;48.106;-1.696;2023-08-08T13:19:21;4.93;;;1.53;;
22967;SDS011;11650;48.106;-1.696;2023-08-08T13:21:50;5.47;;;1.50;;
22967;SDS011;11650;48.106;-1.696;2023-08-08T13:24:19;5.10;;;1.67;;
22967;SDS011;11650;48.106;-1.696;2023-08-08T13:26:47;5.28;;;1.58;;
22967;SDS011;11650;48.106;-1.696;2023-08-08T13:29:14;4.30;;;1.47;;
22967;SDS011;11650;48.106;-1.696;2023-08-08T13:31:39;5.60;;;1.53;;
22967;SDS011;11650;48.106;-1.696;2023-08-08T13:34:05;3.63;;;1.23;;
22967;SDS011;11650;48.106;-1.696;2023-08-08T13:36:31;4.10;;;1.40;;
22967;SDS011;11650;48.106;-1.696;2023-08-08T13:38:56;5.30;;;1.50;;
22967;SDS011;11650;48.106;-1.696;2023-08-08T13:41:22;4.37;;;1.57;;
22967;SDS011;11650;48.106;-1.696;2023-08-08T13:43:49;5.60;;;1.58;;
22967;SDS011;11650;48.106;-1.696;2023-08-08T13:46:14;5.85;;;1.50;;
22967;SDS011;11650;48.106;-1.696;2023-08-08T13:48:40;3.17;;;1.53;;
22967;SDS011;11650;48.106;-1.696;2023-08-08T13:51:05;3.20;;;1.40;;
22967;SDS011;11650;48.106;-1.696;2023-08-08T13:53:31;4.88;;;1.38;;
22967;SDS011;11650;48.106;-1.696;2023-08-08T13:55:57;5.03;;;1.50;;
22967;SDS011;11650;48.106;-1.696;2023-08-08T13:58:22;3.47;;;1.30;;
22967;SDS011;11650;48.106;-1.696;2023-08-08T14:00:49;4.40;;;1.43;;
22967;SDS011;11650;48.106;-1.696;2023-08-08T14:03:14;4.73;;;1.33;;
22967;SDS011;11650;48.106;-1.696;2023-08-08T14:05:40;2.93;;;1.47;;
22967;SDS011;11650;48.106;-1.696;2023-08-08T14:08:06;4.27;;;1.53;;
22967;SDS011;11650;48.106;-1.696;2023-08-08T14:10:32;4.70;;;1.57;;
22967;SDS011;11650;48.106;-1.696;2023-08-08T14:12:57;4.17;;;1.40;;
22967;SDS011;11650;48.106;-1.696;2023-08-08T14:15:23;7.40;;;1.80;;
22967;SDS011;11650;48.106;-1.696;2023-08-08T14:17:49;4.95;;;1.48;;
22967;SDS011;11650;48.106;-1.696;2023-08-08T14:20:14;6.28;;;1.80;;
22967;SDS011;11650;48.106;-1.696;2023-08-08T14:22:43;3.17;;;1.45;;
22967;SDS011;11650;48.106;-1.696;2023-08-08T14:25:10;4.20;;;1.30;;
22967;SDS011;11650;48.106;-1.696;2023-08-08T14:27:36;4.35;;;1.42;;
22967;SDS011;11650;48.106;-1.696;2023-08-08T14:30:02;5.72;;;1.40;;